Time;durP1;ratioP1;P1;durP2;ratioP2;P2;SDS_P1;SDS_P2;PMS_P1;PMS_P2;Temp;Humidity;BMP_temperature;BMP_pressure;BME280_temperature;BME280_humidity;BME280_pressure;Samples;Min_cycle;Max_cycle;Signal;HPM_P1;HPM_P2
2023/05/06 00:00:54;;;;;;;10.83;4.10;;;;;;;11.98;100.00;101218.31;5094938;28;20444;-70
2023/05/06 00:03:21;;;;;;;7.90;3.50;;;;;;;11.98;100.00;101207.44;5094536;28;20476;-70
2023/05/06 00:05:48;;;;;;;8.03;3.33;;;;;;;11.95;100.00;101209.94;5094860;28;20440;-69
2023/05/06 00:08:16;;;;;;;10.50;4.17;;;;;;;11.88;100.00;101210.34;5094752;28;20441;-69
2023/05/06 00:10:43;;;;;;;11.97;3.50;;;;;;;11.88;100.00;101212.25;5094635;28;20576;-70
2023/05/06 00:13:09;;;;;;;7.40;3.20;;;;;;;11.82;100.00;101209.59;5094310;28;20897;-70
2023/05/06 00:15:36;;;;;;;8.83;3.83;;;;;;;11.74;100.00;101204.00;5094622;28;20852;-70
2023/05/06 00:18:03;;;;;;;8.77;3.67;;;;;;;11.68;100.00;101203.25;5094558;28;20442;-70
2023/05/06 00:20:30;;;;;;;9.00;3.30;;;;;;;11.63;100.00;101203.31;5094549;28;20867;-70
2023/05/06 00:22:56;;;;;;;10.90;4.03;;;;;;;11.62;100.00;101202.50;5094456;28;20464;-70
2023/05/06 00:25:25;;;;;;;7.30;3.10;;;;;;;11.57;100.00;101202.59;5094392;28;20440;-70
2023/05/06 00:27:53;;;;;;;13.87;4.53;;;;;;;11.55;100.00;101191.25;5094449;28;20465;-70
2023/05/06 00:30:19;;;;;;;8.77;3.37;;;;;;;11.59;100.00;101188.72;5093875;28;20475;-70
2023/05/06 00:32:46;;;;;;;13.83;4.00;;;;;;;11.46;100.00;101190.25;5094250;28;20461;-70
2023/05/06 00:35:13;;;;;;;8.80;3.00;;;;;;;11.48;100.00;101184.56;5095246;28;20971;-70
2023/05/06 00:37:39;;;;;;;10.93;3.20;;;;;;;11.41;100.00;101192.22;5094263;28;20436;-70
2023/05/06 00:40:07;;;;;;;10.03;3.40;;;;;;;11.42;100.00;101185.69;5093832;28;20472;-70
2023/05/06 00:42:35;;;;;;;8.40;3.57;;;;;;;11.45;100.00;101182.41;5094025;28;20460;-70
2023/05/06 00:45:02;;;;;;;8.77;3.50;;;;;;;11.38;100.00;101182.78;5094079;28;20471;-70
2023/05/06 00:47:29;;;;;;;9.20;3.67;;;;;;;11.38;100.00;101177.34;5094060;28;20487;-70
2023/05/06 00:49:56;;;;;;;12.83;3.80;;;;;;;11.35;100.00;101184.16;5093645;28;21006;-69
2023/05/06 00:52:23;;;;;;;11.07;4.23;;;;;;;11.36;100.00;101172.22;5093554;28;20476;-69
2023/05/06 00:54:49;;;;;;;7.77;3.20;;;;;;;11.37;100.00;101168.38;5093615;28;20444;-69
2023/05/06 00:57:16;;;;;;;9.40;3.60;;;;;;;11.34;100.00;101169.00;5093601;28;20446;-70
2023/05/06 00:59:44;;;;;;;8.70;3.20;;;;;;;11.31;100.00;101172.28;5093853;28;20475;-70
2023/05/06 01:02:11;;;;;;;9.60;4.00;;;;;;;11.21;100.00;101175.13;5093472;28;20528;-69
2023/05/06 01:04:37;;;;;;;13.57;4.00;;;;;;;11.30;100.00;101180.72;5092699;28;20458;-70
2023/05/06 01:07:12;;;;;;;12.23;3.80;;;;;;;11.39;100.00;101181.69;5093368;28;20441;-70
2023/05/06 01:09:42;;;;;;;10.33;3.80;;;;;;;11.42;100.00;101183.81;5093330;28;20478;-71
2023/05/06 01:12:16;;;;;;;10.07;4.07;;;;;;;11.44;100.00;101178.09;5093350;28;20805;-71
2023/05/06 01:14:55;;;;;;;8.77;3.57;;;;;;;11.39;100.00;101176.25;5093649;28;20523;-71
2023/05/06 01:17:27;;;;;;;11.00;4.00;;;;;;;11.35;100.00;101169.78;5093626;28;20511;-70
2023/05/06 01:19:58;;;;;;;9.57;3.70;;;;;;;11.31;100.00;101166.06;5093234;28;20421;-69
2023/05/06 01:22:26;;;;;;;9.60;3.43;;;;;;;11.33;100.00;101164.66;5093382;28;20531;-70
2023/05/06 01:24:54;;;;;;;11.33;4.33;;;;;;;11.35;100.00;101176.03;5093471;28;20443;-70
2023/05/06 01:27:21;;;;;;;14.90;3.57;;;;;;;11.34;100.00;101166.28;5093388;28;20441;-69
2023/05/06 01:29:48;;;;;;;8.00;3.40;;;;;;;11.30;100.00;101170.66;5092947;28;20567;-69
2023/05/06 01:32:29;;;;;;;10.00;3.77;;;;;;;11.22;100.00;101167.78;5093277;28;20436;-69
2023/05/06 01:35:00;;;;;;;9.10;3.70;;;;;;;11.14;100.00;101171.94;5093022;28;20511;-70
2023/05/06 01:37:34;;;;;;;8.13;4.20;;;;;;;11.04;100.00;101167.47;5093305;28;20424;-70
2023/05/06 01:40:04;;;;;;;9.73;4.00;;;;;;;10.95;100.00;101165.69;5093318;28;20453;-70
2023/05/06 01:42:33;;;;;;;10.13;4.00;;;;;;;10.84;100.00;101163.06;5093101;28;20448;-69
2023/05/06 01:45:02;;;;;;;12.30;4.27;;;;;;;10.83;100.00;101161.47;5093361;28;20519;-70
2023/05/06 01:47:29;;;;;;;9.50;3.27;;;;;;;10.73;100.00;101161.59;5093203;28;20528;-70
2023/05/06 01:49:57;;;;;;;10.83;3.83;;;;;;;10.75;100.00;101167.50;5092754;28;20484;-70
2023/05/06 01:52:25;;;;;;;8.30;3.80;;;;;;;10.79;100.00;101173.97;5092748;28;20947;-70
2023/05/06 01:54:52;;;;;;;10.97;4.10;;;;;;;10.79;100.00;101170.47;5092846;28;20953;-70
2023/05/06 01:57:20;;;;;;;8.37;3.80;;;;;;;10.74;100.00;101171.31;5093083;28;20519;-70
2023/05/06 01:59:47;;;;;;;6.67;2.70;;;;;;;10.71;100.00;101161.06;5093093;28;20524;-70
2023/05/06 02:02:13;;;;;;;9.70;3.67;;;;;;;10.73;100.00;101158.88;5092976;28;20906;-70
2023/05/06 02:04:40;;;;;;;8.33;3.37;;;;;;;10.67;100.00;101151.91;5093085;28;20456;-70
2023/05/06 02:07:07;;;;;;;8.10;3.10;;;;;;;10.60;100.00;101157.66;5092777;28;20519;-70
2023/05/06 02:09:33;;;;;;;8.00;3.33;;;;;;;10.54;100.00;101156.09;5092945;28;20523;-69
2023/05/06 02:12:00;;;;;;;10.57;4.00;;;;;;;10.48;100.00;101153.72;5092640;28;20872;-70
2023/05/06 02:14:28;;;;;;;8.47;3.03;;;;;;;10.46;100.00;101145.91;5093809;28;20548;-68
2023/05/06 02:16:55;;;;;;;9.87;3.67;;;;;;;10.42;100.00;101144.03;5096658;28;20487;-70
2023/05/06 02:19:21;;;;;;;12.27;4.43;;;;;;;10.45;100.00;101140.78;5096479;28;20939;-70
2023/05/06 02:21:48;;;;;;;8.93;3.60;;;;;;;10.45;100.00;101146.19;5096873;28;20436;-70
2023/05/06 02:24:14;;;;;;;11.30;4.10;;;;;;;10.35;100.00;101147.88;5096428;28;20499;-69
2023/05/06 02:26:41;;;;;;;17.33;4.50;;;;;;;10.41;100.00;101150.56;5096814;28;20436;-70
2023/05/06 02:29:07;;;;;;;11.20;4.20;;;;;;;10.36;100.00;101151.41;5096803;28;20444;-70
2023/05/06 02:31:35;;;;;;;7.93;3.13;;;;;;;10.33;100.00;101141.94;5096641;28;20488;-69
2023/05/06 02:34:02;;;;;;;8.80;3.80;;;;;;;10.30;100.00;101145.22;5096620;28;20543;-70
2023/05/06 02:36:29;;;;;;;8.37;3.70;;;;;;;10.15;100.00;101142.63;5096370;28;20939;-70
2023/05/06 02:38:55;;;;;;;12.17;3.67;;;;;;;10.16;100.00;101144.25;5096601;28;20441;-70
2023/05/06 02:41:22;;;;;;;8.43;3.90;;;;;;;10.14;100.00;101149.16;5096319;28;20464;-70
2023/05/06 02:43:48;;;;;;;11.60;3.30;;;;;;;10.16;100.00;101159.69;5096419;28;20471;-70
2023/05/06 02:46:15;;;;;;;9.30;3.57;;;;;;;10.18;100.00;101160.19;5096427;28;20527;-70
2023/05/06 02:48:43;;;;;;;10.20;3.23;;;;;;;10.18;100.00;101165.59;5096446;28;20472;-70
2023/05/06 02:51:10;;;;;;;7.90;3.30;;;;;;;10.16;100.00;101171.31;5096383;28;20490;-70
2023/05/06 02:53:37;;;;;;;10.47;4.30;;;;;;;10.17;100.00;101164.81;5095929;28;20852;-70
2023/05/06 02:56:04;;;;;;;9.10;2.97;;;;;;;10.14;100.00;101151.03;5095865;28;20539;-69
2023/05/06 02:58:31;;;;;;;9.73;3.37;;;;;;;10.11;100.00;101168.66;5095875;28;20531;-69
2023/05/06 03:00:57;;;;;;;7.70;3.60;;;;;;;10.01;100.00;101174.16;5095847;28;20447;-69
2023/05/06 03:03:24;;;;;;;10.57;3.77;;;;;;;9.93;100.00;101172.03;5095704;28;20484;-70
2023/05/06 03:05:52;;;;;;;9.40;3.67;;;;;;;9.92;100.00;101175.84;5096097;28;20566;-69
2023/05/06 03:08:19;;;;;;;9.30;3.83;;;;;;;9.92;100.00;101163.13;5095994;28;20455;-70
2023/05/06 03:10:45;;;;;;;13.17;4.37;;;;;;;9.95;100.00;101177.97;5095875;28;20553;-67
2023/05/06 03:13:12;;;;;;;10.27;3.50;;;;;;;9.98;100.00;101164.69;5095752;28;20500;-69
2023/05/06 03:15:40;;;;;;;7.13;3.27;;;;;;;9.94;100.00;101152.81;5095486;28;20977;-70
2023/05/06 03:18:06;;;;;;;9.83;4.07;;;;;;;9.94;100.00;101160.94;5095785;28;20451;-69
2023/05/06 03:20:33;;;;;;;11.40;3.90;;;;;;;10.02;100.00;101160.34;5095654;28;20440;-69
2023/05/06 03:23:01;;;;;;;9.70;4.10;;;;;;;10.05;100.00;101153.56;5095319;28;21050;-69
2023/05/06 03:25:28;;;;;;;12.50;5.17;;;;;;;10.03;100.00;101150.31;5095175;28;20539;-69
2023/05/06 03:27:54;;;;;;;9.47;4.20;;;;;;;10.02;100.00;101159.53;5095017;28;20446;-69
2023/05/06 03:30:21;;;;;;;9.03;4.50;;;;;;;9.98;100.00;101150.34;5095102;28;20480;-69
2023/05/06 03:32:48;;;;;;;9.03;3.90;;;;;;;9.92;100.00;101154.19;5095517;28;20465;-69
2023/05/06 03:35:15;;;;;;;10.13;4.20;;;;;;;9.95;100.00;101146.31;5095123;28;20445;-69
2023/05/06 03:37:42;;;;;;;9.13;3.87;;;;;;;9.92;100.00;101143.38;5095312;28;20440;-70
2023/05/06 03:40:10;;;;;;;12.17;3.70;;;;;;;9.89;100.00;101142.03;5095269;28;20436;-70
2023/05/06 03:42:36;;;;;;;11.97;4.03;;;;;;;9.91;100.00;101139.84;5094907;28;20491;-70
2023/05/06 03:45:04;;;;;;;8.07;3.30;;;;;;;9.92;100.00;101133.34;5095249;28;20451;-70
2023/05/06 03:47:30;;;;;;;9.67;3.60;;;;;;;9.79;100.00;101137.50;5095112;28;20444;-70
2023/05/06 03:49:57;;;;;;;17.43;4.03;;;;;;;9.82;100.00;101136.13;5095067;28;20441;-70
2023/05/06 03:52:24;;;;;;;12.17;5.10;;;;;;;9.80;100.00;101128.28;5094986;28;20495;-71
2023/05/06 03:54:50;;;;;;;9.60;4.43;;;;;;;9.82;100.00;101130.72;5094729;28;20480;-68
2023/05/06 03:57:18;;;;;;;8.53;3.30;;;;;;;9.77;100.00;101130.75;5095015;28;20829;-70
2023/05/06 03:59:45;;;;;;;10.80;4.07;;;;;;;9.68;100.00;101135.16;5094637;28;20443;-70
2023/05/06 04:02:11;;;;;;;6.83;2.70;;;;;;;9.66;100.00;101137.34;5094817;28;20480;-70
2023/05/06 04:04:38;;;;;;;9.43;3.87;;;;;;;9.67;100.00;101130.84;5094413;28;20455;-68
2023/05/06 04:07:04;;;;;;;15.63;4.03;;;;;;;9.67;100.00;101131.63;5094530;28;20441;-70
2023/05/06 04:09:31;;;;;;;10.97;4.50;;;;;;;9.74;100.00;101131.31;5094352;28;20446;-70
2023/05/06 04:11:58;;;;;;;10.37;3.73;;;;;;;9.64;100.00;101131.38;5094640;28;20575;-70
2023/05/06 04:14:26;;;;;;;16.23;4.33;;;;;;;9.62;100.00;101145.22;5094549;28;20483;-68
2023/05/06 04:16:52;;;;;;;9.17;4.03;;;;;;;9.58;100.00;101146.84;5094349;28;20531;-70
2023/05/06 04:19:20;;;;;;;13.37;4.80;;;;;;;9.53;100.00;101139.56;5094226;28;20442;-70
2023/05/06 04:21:47;;;;;;;12.43;4.73;;;;;;;9.49;100.00;101151.25;5094195;28;20965;-70
2023/05/06 04:24:14;;;;;;;9.30;2.90;;;;;;;9.43;100.00;101147.75;5094389;28;20506;-70
2023/05/06 04:26:41;;;;;;;9.83;4.13;;;;;;;9.47;100.00;101148.78;5094426;28;20487;-69
2023/05/06 04:29:08;;;;;;;11.73;4.37;;;;;;;9.43;100.00;101155.03;5094108;28;20445;-70
2023/05/06 04:31:36;;;;;;;7.93;4.07;;;;;;;9.43;100.00;101160.44;5094286;28;20484;-70
2023/05/06 04:34:03;;;;;;;11.90;4.43;;;;;;;9.38;100.00;101155.88;5094241;28;20460;-70
2023/05/06 04:36:29;;;;;;;11.20;4.53;;;;;;;9.45;100.00;101163.69;5093954;28;20539;-70
2023/05/06 04:38:56;;;;;;;9.40;3.70;;;;;;;9.46;100.00;101151.78;5092918;28;21074;-70
2023/05/06 04:41:22;;;;;;;9.37;4.17;;;;;;;9.48;100.00;101157.75;5094165;28;20519;-71
2023/05/06 04:43:49;;;;;;;12.57;4.30;;;;;;;9.53;100.00;101166.63;5093693;28;20837;-70
2023/05/06 04:46:16;;;;;;;10.00;4.07;;;;;;;9.49;100.00;101162.84;5093686;28;20444;-71
2023/05/06 04:48:44;;;;;;;8.50;3.43;;;;;;;9.54;100.00;101172.84;5093593;28;20941;-71
2023/05/06 04:51:10;;;;;;;15.20;5.43;;;;;;;9.54;100.00;101178.25;5093911;28;20567;-70
2023/05/06 04:53:37;;;;;;;10.77;4.30;;;;;;;9.55;100.00;101177.94;5093847;28;20456;-70
2023/05/06 04:56:04;;;;;;;11.40;3.97;;;;;;;9.59;100.00;101183.63;5093954;28;20471;-75
2023/05/06 04:58:30;;;;;;;8.43;3.63;;;;;;;9.62;100.00;101191.19;5093839;28;20471;-69
2023/05/06 05:00:57;;;;;;;11.73;4.30;;;;;;;9.64;100.00;101194.41;5093841;28;20439;-68
2023/05/06 05:03:24;;;;;;;11.10;4.20;;;;;;;9.63;100.00;101195.50;5093434;28;20533;-69
2023/05/06 05:05:52;;;;;;;13.43;4.63;;;;;;;9.69;100.00;101191.66;5093749;28;20444;-69
2023/05/06 05:08:18;;;;;;;11.20;3.90;;;;;;;9.70;100.00;101181.69;5093664;28;20440;-69
2023/05/06 05:10:45;;;;;;;11.47;4.73;;;;;;;9.74;100.00;101186.25;5093897;28;20476;-75
2023/05/06 05:13:11;;;;;;;11.60;4.10;;;;;;;9.80;100.00;101185.13;5093574;28;20901;-69
2023/05/06 05:15:38;;;;;;;8.90;4.07;;;;;;;9.81;100.00;101184.00;5093640;28;20866;-69
2023/05/06 05:18:05;;;;;;;9.50;3.90;;;;;;;9.84;100.00;101188.06;5093571;28;20501;-69
2023/05/06 05:20:32;;;;;;;10.70;4.77;;;;;;;9.89;100.00;101188.03;5093514;28;20441;-69
2023/05/06 05:23:00;;;;;;;7.63;3.47;;;;;;;9.86;100.00;101183.19;5093480;28;20536;-69
2023/05/06 05:25:26;;;;;;;12.00;4.70;;;;;;;9.84;100.00;101179.97;5093429;28;20451;-69
2023/05/06 05:27:53;;;;;;;8.03;3.77;;;;;;;9.81;100.00;101186.72;5093134;28;21010;-69
2023/05/06 05:30:20;;;;;;;10.37;4.20;;;;;;;9.89;100.00;101188.03;5093321;28;20440;-68
2023/05/06 05:32:46;;;;;;;10.90;3.73;;;;;;;9.92;100.00;101197.50;5093286;28;20549;-69
2023/05/06 05:35:13;;;;;;;8.43;3.30;;;;;;;9.88;100.00;101191.03;5093353;28;21012;-69
2023/05/06 05:37:39;;;;;;;12.60;4.03;;;;;;;9.84;100.00;101182.66;5093337;28;20519;-69
2023/05/06 05:40:09;;;;;;;8.77;3.70;;;;;;;9.80;100.00;101185.13;5093086;28;20448;-69
2023/05/06 05:42:36;;;;;;;11.53;3.83;;;;;;;9.77;100.00;101191.06;5092841;28;20459;-69
2023/05/06 05:45:02;;;;;;;8.40;3.63;;;;;;;9.74;100.00;101198.94;5092951;28;20480;-69
2023/05/06 05:47:29;;;;;;;8.50;3.50;;;;;;;9.65;100.00;101198.75;5092864;28;20447;-69
2023/05/06 05:49:56;;;;;;;11.27;4.30;;;;;;;9.62;100.00;101202.00;5095012;28;20495;-69
2023/05/06 05:52:22;;;;;;;11.80;4.50;;;;;;;9.68;100.00;101208.19;5097319;28;20571;-69
2023/05/06 05:54:49;;;;;;;8.70;4.00;;;;;;;9.70;100.00;101200.63;5097371;28;20573;-69
2023/05/06 05:57:17;;;;;;;11.90;4.27;;;;;;;9.66;100.00;101205.78;5097087;28;20444;-69
2023/05/06 05:59:44;;;;;;;12.77;4.80;;;;;;;9.76;100.00;101207.59;5097207;28;20809;-69
2023/05/06 06:02:10;;;;;;;9.67;4.20;;;;;;;9.77;100.00;101217.31;5096888;28;20992;-69
2023/05/06 06:04:37;;;;;;;9.77;3.70;;;;;;;9.64;100.00;101213.34;5096741;28;20487;-69
2023/05/06 06:07:04;;;;;;;12.57;4.10;;;;;;;9.63;100.00;101219.03;5097030;28;20943;-69
2023/05/06 06:09:30;;;;;;;11.63;4.70;;;;;;;9.64;100.00;101224.16;5096756;28;20535;-69
2023/05/06 06:11:57;;;;;;;8.53;3.27;;;;;;;9.64;100.00;101213.34;5097008;28;20571;-69
2023/05/06 06:14:25;;;;;;;10.30;3.70;;;;;;;9.71;100.00;101219.25;5096964;28;20460;-69
2023/05/06 06:16:52;;;;;;;9.07;3.30;;;;;;;9.72;100.00;101214.66;5096649;28;20458;-69
2023/05/06 06:19:18;;;;;;;12.00;4.13;;;;;;;9.70;100.00;101209.53;5096937;28;20444;-69
2023/05/06 06:21:45;;;;;;;15.07;4.20;;;;;;;9.67;100.00;101209.28;5096567;28;20468;-69
2023/05/06 06:24:12;;;;;;;8.63;3.77;;;;;;;9.66;100.00;101202.25;5096465;28;20460;-69
2023/05/06 06:26:39;;;;;;;9.80;3.47;;;;;;;9.63;100.00;101200.09;5096522;28;20961;-69
2023/05/06 06:29:05;;;;;;;9.93;3.90;;;;;;;9.54;100.00;101197.97;5096833;28;20444;-70
2023/05/06 06:31:34;;;;;;;9.30;3.47;;;;;;;9.59;100.00;101202.56;5096292;28;20480;-71
2023/05/06 06:34:04;;;;;;;11.27;4.43;;;;;;;9.53;100.00;101196.38;5097970;28;20436;-71
2023/05/06 06:36:30;;;;;;;7.80;3.00;;;;;;;9.55;100.00;101194.19;5096583;28;20866;-70
2023/05/06 06:38:57;;;;;;;10.07;3.70;;;;;;;9.54;100.00;101189.88;5096230;28;20496;-70
2023/05/06 06:41:23;;;;;;;8.00;3.97;;;;;;;9.49;100.00;101195.31;5096254;28;21026;-70
2023/05/06 06:43:50;;;;;;;9.67;3.53;;;;;;;9.46;100.00;101211.28;5096403;28;20492;-70
2023/05/06 06:46:17;;;;;;;14.07;4.30;;;;;;;9.51;100.00;101192.31;5096433;28;20450;-70
2023/05/06 06:48:45;;;;;;;9.47;3.80;;;;;;;9.55;100.00;101205.00;5096421;28;20436;-71
2023/05/06 06:51:11;;;;;;;9.60;3.93;;;;;;;9.56;100.00;101203.94;5096212;28;20511;-70
2023/05/06 06:53:38;;;;;;;8.77;4.07;;;;;;;9.65;100.00;101203.31;5096216;28;20555;-73
2023/05/06 06:56:09;;;;;;;10.73;4.13;;;;;;;9.67;100.00;101201.97;5096292;28;20436;-70
2023/05/06 06:58:36;;;;;;;8.97;4.37;;;;;;;9.62;100.00;101209.31;5096209;28;20547;-70
2023/05/06 07:01:02;;;;;;;10.97;4.13;;;;;;;9.63;100.00;101216.34;5094924;28;20475;-70
2023/05/06 07:03:29;;;;;;;12.33;4.47;;;;;;;9.71;100.00;101213.03;5095669;28;20498;-70
2023/05/06 07:05:57;;;;;;;10.07;3.90;;;;;;;9.79;100.00;101213.25;5095700;28;20452;-70
2023/05/06 07:08:24;;;;;;;11.47;4.40;;;;;;;9.85;100.00;101219.44;5095990;28;20445;-70
2023/05/06 07:10:51;;;;;;;15.23;4.77;;;;;;;9.87;100.00;101222.66;5095602;28;20981;-70
2023/05/06 07:13:19;;;;;;;11.47;4.27;;;;;;;9.81;100.00;101231.91;5095453;28;20492;-69
2023/05/06 07:15:45;;;;;;;11.70;4.43;;;;;;;9.75;100.00;101231.13;5095873;28;20869;-70
2023/05/06 07:18:12;;;;;;;9.63;4.47;;;;;;;9.71;100.00;101232.78;5095809;28;20444;-70
2023/05/06 07:20:39;;;;;;;11.27;4.40;;;;;;;9.72;100.00;101231.69;5095772;28;20463;-70
2023/05/06 07:23:07;;;;;;;8.73;4.13;;;;;;;9.75;100.00;101224.94;5095708;28;20535;-70
2023/05/06 07:25:34;;;;;;;11.43;3.87;;;;;;;9.80;100.00;101233.00;5095681;28;20447;-70
2023/05/06 07:28:00;;;;;;;10.30;4.27;;;;;;;9.82;100.00;101231.63;5095631;28;20440;-70
2023/05/06 07:30:27;;;;;;;12.13;4.80;;;;;;;9.77;100.00;101234.38;5095617;28;20863;-69
2023/05/06 07:32:54;;;;;;;12.47;4.80;;;;;;;9.80;100.00;101239.22;5095352;28;20488;-70
2023/05/06 07:35:20;;;;;;;14.20;4.30;;;;;;;9.79;100.00;101229.50;5095124;28;21031;-70
2023/05/06 07:37:47;;;;;;;10.30;4.57;;;;;;;9.79;100.00;101232.19;5095452;28;20490;-70
2023/05/06 07:40:15;;;;;;;10.07;4.57;;;;;;;9.79;100.00;101232.19;5095005;28;20951;-69
2023/05/06 07:42:41;;;;;;;11.37;3.73;;;;;;;9.80;100.00;101239.22;5095259;28;20891;-69
2023/05/06 07:45:09;;;;;;;17.33;4.43;;;;;;;9.87;100.00;101236.19;5095336;28;20528;-69
2023/05/06 07:47:35;;;;;;;10.10;4.30;;;;;;;9.84;100.00;101242.19;5095248;28;20489;-69
2023/05/06 07:50:03;;;;;;;10.53;4.57;;;;;;;9.88;100.00;101239.72;5095162;28;20791;-69
2023/05/06 07:52:30;;;;;;;10.50;4.57;;;;;;;9.85;100.00;101236.47;5094931;28;20508;-69
2023/05/06 07:54:57;;;;;;;11.50;5.47;;;;;;;9.88;100.00;101245.16;5095090;28;20566;-69
2023/05/06 07:57:25;;;;;;;13.40;5.03;;;;;;;9.93;100.00;101247.81;5094970;28;20444;-69
2023/05/06 07:59:52;;;;;;;14.33;4.87;;;;;;;9.91;100.00;101256.19;5094650;28;20476;-69
2023/05/06 08:02:18;;;;;;;12.70;5.47;;;;;;;9.85;100.00;101252.72;5094754;28;20822;-69
2023/05/06 08:04:45;;;;;;;10.50;4.70;;;;;;;9.86;100.00;101257.03;5094940;28;20536;-69
2023/05/06 08:07:12;;;;;;;12.73;4.80;;;;;;;9.86;100.00;101265.16;5094828;28;20445;-69
2023/05/06 08:09:38;;;;;;;9.87;4.07;;;;;;;9.76;100.00;101262.50;5094459;28;20528;-69
2023/05/06 08:12:06;;;;;;;10.33;4.67;;;;;;;9.79;100.00;101270.09;5094410;28;20576;-69
2023/05/06 08:14:34;;;;;;;9.90;4.63;;;;;;;9.84;100.00;101272.75;5094626;28;20563;-69
2023/05/06 08:17:01;;;;;;;14.87;5.90;;;;;;;9.83;100.00;101273.84;5094576;28;20441;-69
2023/05/06 08:19:27;;;;;;;12.53;5.87;;;;;;;10.01;100.00;101277.81;5094565;28;20448;-69
2023/05/06 08:21:54;;;;;;;14.17;6.20;;;;;;;10.15;100.00;101283.41;5094543;28;20451;-69
2023/05/06 08:24:21;;;;;;;9.83;5.13;;;;;;;10.21;100.00;101274.16;5094452;28;20463;-69
2023/05/06 08:26:47;;;;;;;14.20;6.40;;;;;;;10.21;100.00;101278.75;5094477;28;20877;-69
2023/05/06 08:29:14;;;;;;;11.03;5.60;;;;;;;10.31;100.00;101282.25;5094375;28;20547;-69
2023/05/06 08:31:43;;;;;;;11.27;4.97;;;;;;;10.37;100.00;101287.63;5094321;28;20579;-71
2023/05/06 08:34:09;;;;;;;13.13;5.60;;;;;;;10.45;100.00;101285.13;5094236;28;20539;-71
2023/05/06 08:36:36;;;;;;;10.67;5.30;;;;;;;10.55;100.00;101282.31;5094255;28;20443;-72
2023/05/06 08:39:02;;;;;;;11.77;4.80;;;;;;;10.61;100.00;101289.31;5094184;28;20809;-69
2023/05/06 08:41:31;;;;;;;10.37;5.30;;;;;;;10.67;100.00;101287.38;5094173;28;20819;-70
2023/05/06 08:44:00;;;;;;;10.50;4.70;;;;;;;10.76;100.00;101295.72;5094103;28;20466;-70
2023/05/06 08:46:29;;;;;;;12.30;6.40;;;;;;;10.80;100.00;101305.69;5094063;28;20468;-70
2023/05/06 08:48:57;;;;;;;13.60;5.70;;;;;;;10.85;100.00;101308.34;5094045;28;20455;-70
2023/05/06 08:51:28;;;;;;;14.97;6.40;;;;;;;10.84;100.00;101301.28;5093913;28;20452;-70
2023/05/06 08:53:55;;;;;;;10.57;5.20;;;;;;;10.85;100.00;101308.34;5093991;28;20551;-69
2023/05/06 08:56:28;;;;;;;17.00;5.70;;;;;;;10.85;100.00;101308.34;5093842;28;20428;-70
2023/05/06 08:58:57;;;;;;;12.67;5.80;;;;;;;10.89;100.00;101314.00;5093890;28;20505;-71
2023/05/06 09:01:26;;;;;;;14.10;5.03;;;;;;;10.90;100.00;101312.91;5093830;28;20444;-70
2023/05/06 09:03:53;;;;;;;16.17;5.30;;;;;;;10.85;100.00;101323.81;5093391;28;20563;-70
2023/05/06 09:06:21;;;;;;;11.30;4.63;;;;;;;10.75;100.00;101324.69;5093467;28;21026;-70
2023/05/06 09:08:47;;;;;;;21.17;6.07;;;;;;;10.78;100.00;101337.66;5093708;28;20440;-69
2023/05/06 09:11:22;;;;;;;11.37;4.40;;;;;;;10.70;100.00;101326.63;5093671;28;20446;-70
2023/05/06 09:13:50;;;;;;;18.50;5.30;;;;;;;10.66;100.00;101331.81;5093570;28;20484;-70
2023/05/06 09:16:30;;;;;;;10.30;5.03;;;;;;;10.69;100.00;101333.94;5093296;28;20444;-70
2023/05/06 09:18:57;;;;;;;10.90;5.07;;;;;;;10.67;100.00;101338.84;5093619;28;20532;-70
2023/05/06 09:21:33;;;;;;;11.40;5.33;;;;;;;10.57;100.00;101328.06;5093604;28;20476;-69
2023/05/06 09:24:00;;;;;;;9.80;5.00;;;;;;;10.63;100.00;101329.69;5092913;28;20880;-70
2023/05/06 09:26:28;;;;;;;10.73;4.67;;;;;;;10.65;100.00;101322.06;5093513;28;20437;-70
2023/05/06 09:28:55;;;;;;;10.53;4.43;;;;;;;10.66;100.00;101326.38;5093468;28;20440;-70
2023/05/06 09:31:22;;;;;;;8.70;4.23;;;;;;;10.68;100.00;101320.69;5093174;28;21041;-70
2023/05/06 09:33:50;;;;;;;9.50;4.13;;;;;;;10.68;100.00;101321.50;5093257;28;20516;-70
2023/05/06 09:36:16;;;;;;;11.23;5.37;;;;;;;10.60;100.00;101322.09;5093280;28;20452;-70
2023/05/06 09:38:44;;;;;;;13.30;4.93;;;;;;;10.50;100.00;101322.19;5093007;28;20483;-70
2023/05/06 09:41:12;;;;;;;8.57;4.30;;;;;;;10.49;100.00;101323.25;5093333;28;20535;-70
2023/05/06 09:43:43;;;;;;;9.93;5.10;;;;;;;10.50;100.00;101323.00;5093214;28;20477;-70
2023/05/06 09:46:11;;;;;;;12.07;4.37;;;;;;;10.45;100.00;101319.53;5093340;28;20420;-70
2023/05/06 09:48:38;;;;;;;9.10;4.67;;;;;;;10.44;100.00;101326.00;5093183;28;20802;-70
2023/05/06 09:51:06;;;;;;;10.90;4.90;;;;;;;10.42;100.00;101333.63;5092844;28;21011;-70
2023/05/06 09:53:35;;;;;;;11.20;5.20;;;;;;;10.47;100.00;101334.38;5093016;28;20523;-70
2023/05/06 09:56:05;;;;;;;8.23;4.13;;;;;;;10.25;100.00;101334.78;5093123;28;20475;-70
2023/05/06 09:58:32;;;;;;;10.03;4.63;;;;;;;10.39;100.00;101336.88;5092795;28;20456;-70
2023/05/06 10:01:00;;;;;;;9.40;5.03;;;;;;;10.35;100.00;101337.44;5093062;28;20425;-70
2023/05/06 10:03:27;;;;;;;11.07;4.47;;;;;;;10.46;100.00;101342.81;5092491;28;20476;-70
2023/05/06 10:05:56;;;;;;;11.00;4.53;;;;;;;10.49;100.00;101351.19;5092772;28;20444;-70
2023/05/06 10:08:24;;;;;;;11.10;4.30;;;;;;;10.45;100.00;101352.84;5093064;28;20856;-70
2023/05/06 10:10:51;;;;;;;9.80;4.53;;;;;;;10.39;100.00;101353.13;5093020;28;20448;-70
2023/05/06 10:13:20;;;;;;;11.23;5.00;;;;;;;10.41;100.00;101350.97;5092652;28;20484;-70
2023/05/06 10:15:47;;;;;;;9.30;4.27;;;;;;;10.47;100.00;101347.94;5092901;28;20535;-70
2023/05/06 10:18:16;;;;;;;13.47;4.87;;;;;;;10.55;100.00;101347.34;5093199;28;20470;-70
2023/05/06 10:20:44;;;;;;;11.80;5.30;;;;;;;10.63;100.00;101342.41;5092617;28;21018;-70
2023/05/06 10:23:21;;;;;;;10.40;4.50;;;;;;;10.59;100.00;101339.47;5092863;28;20464;-70
2023/05/06 10:25:53;;;;;;;11.10;4.90;;;;;;;10.63;100.00;101348.63;5093027;28;20459;-70
2023/05/06 10:28:22;;;;;;;13.17;5.30;;;;;;;10.60;100.00;101341.06;5092712;28;20919;-71
2023/05/06 10:30:50;;;;;;;11.30;4.70;;;;;;;10.63;100.00;101347.84;5092943;28;20497;-70
2023/05/06 10:33:17;;;;;;;10.27;5.40;;;;;;;10.64;100.00;101344.84;5092834;28;20579;-70
2023/05/06 10:35:53;;;;;;;26.03;5.20;;;;;;;10.60;100.00;101349.19;5094031;28;20485;-71
2023/05/06 10:38:26;;;;;;;12.60;5.43;;;;;;;10.60;100.00;101350.00;5096367;28;20428;-70
2023/05/06 10:40:54;;;;;;;10.37;5.03;;;;;;;10.57;100.00;101357.88;5096584;28;20515;-70
2023/05/06 10:43:25;;;;;;;15.40;5.63;;;;;;;10.39;100.00;101359.34;5096427;28;20459;-71
2023/05/06 10:46:07;;;;;;;16.47;6.00;;;;;;;10.14;100.00;101354.88;5097035;28;20520;-68
2023/05/06 10:48:35;;;;;;;10.37;4.90;;;;;;;10.14;100.00;101352.19;5096052;28;20432;-70
2023/05/06 10:51:27;;;;;;;10.67;4.77;;;;;;;10.16;100.00;101351.88;5096433;28;20525;-70
2023/05/06 10:54:05;;;;;;;12.00;5.03;;;;;;;10.16;100.00;101347.28;5081276;28;20629;-70
2023/05/06 10:56:33;;;;;;;11.97;5.13;;;;;;;10.19;100.00;101349.44;5096252;28;20466;-70
2023/05/06 10:59:10;;;;;;;11.50;5.40;;;;;;;10.25;100.00;101342.91;5095992;28;20447;-70
2023/05/06 11:01:37;;;;;;;11.87;5.77;;;;;;;10.34;100.00;101335.81;5095721;28;20424;-70
2023/05/06 11:04:09;;;;;;;11.70;5.63;;;;;;;10.46;100.00;101349.03;5095517;28;20852;-70
2023/05/06 11:06:41;;;;;;;10.80;5.80;;;;;;;10.56;100.00;101356.25;5095928;28;20448;-70
2023/05/06 11:09:16;;;;;;;10.77;5.67;;;;;;;10.51;100.00;101356.31;5095842;28;20512;-70
2023/05/06 11:11:51;;;;;;;11.17;4.83;;;;;;;10.61;100.00;101353.53;5096002;28;20435;-70
2023/05/06 11:14:34;;;;;;;15.47;5.90;;;;;;;10.65;100.00;101362.69;5095751;28;20484;-70
2023/05/06 11:17:02;;;;;;;13.43;5.70;;;;;;;10.57;100.00;101368.72;5095696;28;20459;-70
2023/05/06 11:19:30;;;;;;;11.97;5.60;;;;;;;10.57;100.00;101368.72;5095429;28;20983;-70